<?xml version="1.0" encoding="UTF-8" standalone="no" ?>
<gpx xmlns="http://www.topografix.com/GPX/1/1" xmlns:xsi="http://www.w3.org/2001/XMLSchema-instance" xsi:schemaLocation="http://www.topografix.com/GPX/1/1 http://www.topografix.com/GPX/1/1/gpx.xsd" version="1.1" creator="VisuGPX - https://www.visugpx.com">
  <metadata>
    <name>La Roche - Matachare</name>
    <desc><![CDATA[Attention, une piste est barrée en face de la ferme "Ricou" = suivre le Buëch pour contourner l'obstacle]]></desc>
  </metadata>
  <trk>
    <name><![CDATA[OR-7491138--Roche-des-Arnauds (La):La Roche Matachare par Montmaur]]></name>
    <trkseg>
      <trkpt lat="44.55439" lon="5.94855">
        <ele>925</ele>
        <time>2017-09-09T11:57:14Z</time>
      </trkpt>
      <trkpt lat="44.5539" lon="5.94688">
        <ele>922</ele>
        <time>2017-09-09T11:59:14Z</time>
      </trkpt>
      <trkpt lat="44.55416" lon="5.94591">
        <ele>920</ele>
        <time>2017-09-09T12:01:14Z</time>
      </trkpt>
      <trkpt lat="44.55404" lon="5.94518">
        <ele>920</ele>
        <time>2017-09-09T12:03:14Z</time>
      </trkpt>
      <trkpt lat="44.55347" lon="5.94488">
        <ele>922</ele>
        <time>2017-09-09T12:05:14Z</time>
      </trkpt>
      <trkpt lat="44.55372" lon="5.94411">
        <ele>921</ele>
        <time>2017-09-09T12:07:14Z</time>
      </trkpt>
      <trkpt lat="44.55372" lon="5.94228">
        <ele>917</ele>
        <time>2017-09-09T12:09:14Z</time>
      </trkpt>
      <trkpt lat="44.55412" lon="5.93992">
        <ele>918</ele>
        <time>2017-09-09T12:11:14Z</time>
      </trkpt>
      <trkpt lat="44.55459" lon="5.93782">
        <ele>915</ele>
        <time>2017-09-09T12:13:14Z</time>
      </trkpt>
      <trkpt lat="44.55441" lon="5.93645">
        <ele>914</ele>
        <time>2017-09-09T12:15:14Z</time>
      </trkpt>
      <trkpt lat="44.55398" lon="5.93615">
        <ele>921</ele>
        <time>2017-09-09T12:17:14Z</time>
      </trkpt>
      <trkpt lat="44.55416" lon="5.9354">
        <ele>915</ele>
        <time>2017-09-09T12:19:14Z</time>
      </trkpt>
      <trkpt lat="44.55421" lon="5.93475">
        <ele>917</ele>
        <time>2017-09-09T12:21:14Z</time>
      </trkpt>
      <trkpt lat="44.55438" lon="5.93394">
        <ele>920</ele>
        <time>2017-09-09T12:23:14Z</time>
      </trkpt>
      <trkpt lat="44.55462" lon="5.93312">
        <ele>920</ele>
        <time>2017-09-09T12:25:14Z</time>
      </trkpt>
      <trkpt lat="44.55448" lon="5.93261">
        <ele>925</ele>
        <time>2017-09-09T12:27:14Z</time>
      </trkpt>
      <trkpt lat="44.55453" lon="5.93214">
        <ele>925</ele>
        <time>2017-09-09T12:29:14Z</time>
      </trkpt>
      <trkpt lat="44.5548" lon="5.93126">
        <ele>919</ele>
        <time>2017-09-09T12:31:14Z</time>
      </trkpt>
      <trkpt lat="44.55497" lon="5.93014">
        <ele>917</ele>
        <time>2017-09-09T12:33:14Z</time>
      </trkpt>
      <trkpt lat="44.55571" lon="5.92859">
        <ele>910</ele>
        <time>2017-09-09T12:35:14Z</time>
      </trkpt>
      <trkpt lat="44.55609" lon="5.9278">
        <ele>906</ele>
        <time>2017-09-09T12:37:14Z</time>
      </trkpt>
      <trkpt lat="44.5563" lon="5.92677">
        <ele>902</ele>
        <time>2017-09-09T12:39:14Z</time>
      </trkpt>
      <trkpt lat="44.5563" lon="5.92596">
        <ele>902</ele>
        <time>2017-09-09T12:41:14Z</time>
      </trkpt>
      <trkpt lat="44.55609" lon="5.92488">
        <ele>904</ele>
        <time>2017-09-09T12:43:14Z</time>
      </trkpt>
      <trkpt lat="44.55613" lon="5.92467">
        <ele>904</ele>
        <time>2017-09-09T12:45:14Z</time>
      </trkpt>
      <trkpt lat="44.55681" lon="5.92402">
        <ele>899</ele>
        <time>2017-09-09T12:47:14Z</time>
      </trkpt>
      <trkpt lat="44.55685" lon="5.92338">
        <ele>899</ele>
        <time>2017-09-09T12:49:14Z</time>
      </trkpt>
      <trkpt lat="44.55695" lon="5.92313">
        <ele>899</ele>
        <time>2017-09-09T12:51:14Z</time>
      </trkpt>
      <trkpt lat="44.55713" lon="5.92209">
        <ele>899</ele>
        <time>2017-09-09T12:53:14Z</time>
      </trkpt>
      <trkpt lat="44.55697" lon="5.92133">
        <ele>900</ele>
        <time>2017-09-09T12:55:14Z</time>
      </trkpt>
      <trkpt lat="44.55712" lon="5.92089">
        <ele>898</ele>
        <time>2017-09-09T12:57:14Z</time>
      </trkpt>
      <trkpt lat="44.55741" lon="5.92058">
        <ele>897</ele>
        <time>2017-09-09T12:59:14Z</time>
      </trkpt>
      <trkpt lat="44.55762" lon="5.92008">
        <ele>895</ele>
        <time>2017-09-09T13:01:14Z</time>
      </trkpt>
      <trkpt lat="44.55765" lon="5.91963">
        <ele>896</ele>
        <time>2017-09-09T13:03:14Z</time>
      </trkpt>
      <trkpt lat="44.55754" lon="5.91923">
        <ele>897</ele>
        <time>2017-09-09T13:05:14Z</time>
      </trkpt>
      <trkpt lat="44.55774" lon="5.91883">
        <ele>898</ele>
        <time>2017-09-09T13:07:14Z</time>
      </trkpt>
      <trkpt lat="44.55789" lon="5.91812">
        <ele>899</ele>
        <time>2017-09-09T13:09:14Z</time>
      </trkpt>
      <trkpt lat="44.55814" lon="5.91799">
        <ele>897</ele>
        <time>2017-09-09T13:11:14Z</time>
      </trkpt>
      <trkpt lat="44.55847" lon="5.91759">
        <ele>893</ele>
        <time>2017-09-09T13:13:14Z</time>
      </trkpt>
      <trkpt lat="44.55875" lon="5.91673">
        <ele>892</ele>
        <time>2017-09-09T13:15:14Z</time>
      </trkpt>
      <trkpt lat="44.55882" lon="5.91611">
        <ele>892</ele>
        <time>2017-09-09T13:17:14Z</time>
      </trkpt>
      <trkpt lat="44.55861" lon="5.91469">
        <ele>896</ele>
        <time>2017-09-09T13:19:14Z</time>
      </trkpt>
      <trkpt lat="44.55864" lon="5.91394">
        <ele>896</ele>
        <time>2017-09-09T13:21:14Z</time>
      </trkpt>
      <trkpt lat="44.55895" lon="5.91263">
        <ele>888</ele>
        <time>2017-09-09T13:23:14Z</time>
      </trkpt>
      <trkpt lat="44.55912" lon="5.91231">
        <ele>886</ele>
        <time>2017-09-09T13:25:14Z</time>
      </trkpt>
      <trkpt lat="44.55892" lon="5.91115">
        <ele>887</ele>
        <time>2017-09-09T13:27:14Z</time>
      </trkpt>
      <trkpt lat="44.55844" lon="5.90939">
        <ele>886</ele>
        <time>2017-09-09T13:29:14Z</time>
      </trkpt>
      <trkpt lat="44.55798" lon="5.90712">
        <ele>884</ele>
        <time>2017-09-09T13:31:14Z</time>
      </trkpt>
      <trkpt lat="44.55777" lon="5.90589">
        <ele>883</ele>
        <time>2017-09-09T13:33:14Z</time>
      </trkpt>
      <trkpt lat="44.55775" lon="5.90449">
        <ele>882</ele>
        <time>2017-09-09T13:35:14Z</time>
      </trkpt>
      <trkpt lat="44.55778" lon="5.90375">
        <ele>881</ele>
        <time>2017-09-09T13:37:14Z</time>
      </trkpt>
      <trkpt lat="44.55787" lon="5.90218">
        <ele>880</ele>
        <time>2017-09-09T13:39:14Z</time>
      </trkpt>
      <trkpt lat="44.55854" lon="5.90068">
        <ele>878</ele>
        <time>2017-09-09T13:41:14Z</time>
      </trkpt>
      <trkpt lat="44.55923" lon="5.8998">
        <ele>877</ele>
        <time>2017-09-09T13:43:14Z</time>
      </trkpt>
      <trkpt lat="44.55978" lon="5.90001">
        <ele>876</ele>
        <time>2017-09-09T13:45:14Z</time>
      </trkpt>
      <trkpt lat="44.56059" lon="5.89868">
        <ele>879</ele>
        <time>2017-09-09T13:47:14Z</time>
      </trkpt>
      <trkpt lat="44.56094" lon="5.89797">
        <ele>879</ele>
        <time>2017-09-09T13:49:14Z</time>
      </trkpt>
      <trkpt lat="44.56111" lon="5.89763">
        <ele>879</ele>
        <time>2017-09-09T13:51:14Z</time>
      </trkpt>
      <trkpt lat="44.56107" lon="5.89667">
        <ele>879</ele>
        <time>2017-09-09T13:53:14Z</time>
      </trkpt>
      <trkpt lat="44.56114" lon="5.89604">
        <ele>877</ele>
        <time>2017-09-09T13:55:14Z</time>
      </trkpt>
      <trkpt lat="44.56111" lon="5.89503">
        <ele>874</ele>
        <time>2017-09-09T13:57:14Z</time>
      </trkpt>
      <trkpt lat="44.56099" lon="5.89383">
        <ele>874</ele>
        <time>2017-09-09T13:59:14Z</time>
      </trkpt>
      <trkpt lat="44.56088" lon="5.89255">
        <ele>874</ele>
        <time>2017-09-09T14:01:14Z</time>
      </trkpt>
      <trkpt lat="44.56076" lon="5.89144">
        <ele>874</ele>
        <time>2017-09-09T14:03:14Z</time>
      </trkpt>
      <trkpt lat="44.56066" lon="5.89031">
        <ele>874</ele>
        <time>2017-09-09T14:05:14Z</time>
      </trkpt>
      <trkpt lat="44.56108" lon="5.88971">
        <ele>874</ele>
        <time>2017-09-09T14:07:14Z</time>
      </trkpt>
      <trkpt lat="44.56078" lon="5.88909">
        <ele>873</ele>
        <time>2017-09-09T14:09:14Z</time>
      </trkpt>
      <trkpt lat="44.56018" lon="5.88798">
        <ele>873</ele>
        <time>2017-09-09T14:11:14Z</time>
      </trkpt>
      <trkpt lat="44.55977" lon="5.8871">
        <ele>872</ele>
        <time>2017-09-09T14:13:14Z</time>
      </trkpt>
      <trkpt lat="44.55947" lon="5.88636">
        <ele>872</ele>
        <time>2017-09-09T14:15:14Z</time>
      </trkpt>
      <trkpt lat="44.55982" lon="5.88613">
        <ele>876</ele>
        <time>2017-09-09T14:17:14Z</time>
      </trkpt>
      <trkpt lat="44.56" lon="5.88587">
        <ele>879</ele>
        <time>2017-09-09T14:19:14Z</time>
      </trkpt>
      <trkpt lat="44.56026" lon="5.88547">
        <ele>881</ele>
        <time>2017-09-09T14:21:14Z</time>
      </trkpt>
      <trkpt lat="44.56061" lon="5.88516">
        <ele>883</ele>
        <time>2017-09-09T14:23:14Z</time>
      </trkpt>
      <trkpt lat="44.56093" lon="5.88484">
        <ele>885</ele>
        <time>2017-09-09T14:25:14Z</time>
      </trkpt>
      <trkpt lat="44.56167" lon="5.88592">
        <ele>888</ele>
        <time>2017-09-09T14:27:14Z</time>
      </trkpt>
      <trkpt lat="44.56246" lon="5.88699">
        <ele>889</ele>
        <time>2017-09-09T14:29:14Z</time>
      </trkpt>
      <trkpt lat="44.56301" lon="5.88814">
        <ele>884</ele>
        <time>2017-09-09T14:31:14Z</time>
      </trkpt>
      <trkpt lat="44.56352" lon="5.88777">
        <ele>889</ele>
        <time>2017-09-09T14:33:14Z</time>
      </trkpt>
      <trkpt lat="44.5643" lon="5.88706">
        <ele>894</ele>
        <time>2017-09-09T14:35:14Z</time>
      </trkpt>
      <trkpt lat="44.56561" lon="5.88569">
        <ele>900</ele>
        <time>2017-09-09T14:37:14Z</time>
      </trkpt>
      <trkpt lat="44.56744" lon="5.88419">
        <ele>909</ele>
        <time>2017-09-09T14:39:14Z</time>
      </trkpt>
      <trkpt lat="44.56769" lon="5.88243">
        <ele>909</ele>
        <time>2017-09-09T14:41:14Z</time>
      </trkpt>
      <trkpt lat="44.56787" lon="5.88088">
        <ele>913</ele>
        <time>2017-09-09T14:43:14Z</time>
      </trkpt>
      <trkpt lat="44.56857" lon="5.88007">
        <ele>916</ele>
        <time>2017-09-09T14:45:14Z</time>
      </trkpt>
      <trkpt lat="44.56964" lon="5.87981">
        <ele>928</ele>
        <time>2017-09-09T14:47:14Z</time>
      </trkpt>
      <trkpt lat="44.57184" lon="5.88032">
        <ele>958</ele>
        <time>2017-09-09T14:49:14Z</time>
      </trkpt>
      <trkpt lat="44.57285" lon="5.88024">
        <ele>963</ele>
        <time>2017-09-09T14:51:14Z</time>
      </trkpt>
      <trkpt lat="44.57408" lon="5.8805">
        <ele>981</ele>
        <time>2017-09-09T14:53:14Z</time>
      </trkpt>
      <trkpt lat="44.57506" lon="5.88072">
        <ele>999</ele>
        <time>2017-09-09T14:55:14Z</time>
      </trkpt>
      <trkpt lat="44.57586" lon="5.88113">
        <ele>1003</ele>
        <time>2017-09-09T14:57:14Z</time>
      </trkpt>
      <trkpt lat="44.57731" lon="5.88158">
        <ele>1034</ele>
        <time>2017-09-09T14:59:14Z</time>
      </trkpt>
      <trkpt lat="44.57937" lon="5.88182">
        <ele>1075</ele>
        <time>2017-09-09T15:01:14Z</time>
      </trkpt>
      <trkpt lat="44.5813" lon="5.88231">
        <ele>1112</ele>
        <time>2017-09-09T15:03:14Z</time>
      </trkpt>
      <trkpt lat="44.58231" lon="5.88293">
        <ele>1140</ele>
        <time>2017-09-09T15:05:14Z</time>
      </trkpt>
      <trkpt lat="44.58321" lon="5.88377">
        <ele>1174</ele>
        <time>2017-09-09T15:07:14Z</time>
      </trkpt>
      <trkpt lat="44.58319" lon="5.88413">
        <ele>1173</ele>
        <time>2017-09-09T15:09:14Z</time>
      </trkpt>
      <trkpt lat="44.58275" lon="5.88433">
        <ele>1166</ele>
        <time>2017-09-09T15:11:14Z</time>
      </trkpt>
      <trkpt lat="44.58238" lon="5.88448">
        <ele>1162</ele>
        <time>2017-09-09T15:13:14Z</time>
      </trkpt>
      <trkpt lat="44.58162" lon="5.88497">
        <ele>1162</ele>
        <time>2017-09-09T15:15:14Z</time>
      </trkpt>
      <trkpt lat="44.58179" lon="5.88538">
        <ele>1183</ele>
        <time>2017-09-09T15:17:14Z</time>
      </trkpt>
      <trkpt lat="44.58116" lon="5.88624">
        <ele>1191</ele>
        <time>2017-09-09T15:19:14Z</time>
      </trkpt>
      <trkpt lat="44.58032" lon="5.88828">
        <ele>1207</ele>
        <time>2017-09-09T15:21:14Z</time>
      </trkpt>
      <trkpt lat="44.58024" lon="5.8892">
        <ele>1226</ele>
        <time>2017-09-09T15:23:14Z</time>
      </trkpt>
      <trkpt lat="44.58084" lon="5.89001">
        <ele>1249</ele>
        <time>2017-09-09T15:25:14Z</time>
      </trkpt>
      <trkpt lat="44.58144" lon="5.89055">
        <ele>1246</ele>
        <time>2017-09-09T15:27:14Z</time>
      </trkpt>
      <trkpt lat="44.58197" lon="5.89044">
        <ele>1266</ele>
        <time>2017-09-09T15:29:14Z</time>
      </trkpt>
      <trkpt lat="44.58293" lon="5.89085">
        <ele>1266</ele>
        <time>2017-09-09T15:31:14Z</time>
      </trkpt>
      <trkpt lat="44.58376" lon="5.89016">
        <ele>1286</ele>
        <time>2017-09-09T15:33:14Z</time>
      </trkpt>
      <trkpt lat="44.58517" lon="5.88939">
        <ele>1309</ele>
        <time>2017-09-09T15:35:14Z</time>
      </trkpt>
      <trkpt lat="44.58411" lon="5.88886">
        <ele>1320</ele>
        <time>2017-09-09T15:37:14Z</time>
      </trkpt>
      <trkpt lat="44.58509" lon="5.88877">
        <ele>1330</ele>
        <time>2017-09-09T15:39:14Z</time>
      </trkpt>
      <trkpt lat="44.58568" lon="5.88903">
        <ele>1328</ele>
        <time>2017-09-09T15:41:14Z</time>
      </trkpt>
      <trkpt lat="44.58682" lon="5.88937">
        <ele>1340</ele>
        <time>2017-09-09T15:43:14Z</time>
      </trkpt>
      <trkpt lat="44.58723" lon="5.88999">
        <ele>1335</ele>
        <time>2017-09-09T15:45:14Z</time>
      </trkpt>
      <trkpt lat="44.58847" lon="5.89098">
        <ele>1337</ele>
        <time>2017-09-09T15:47:14Z</time>
      </trkpt>
      <trkpt lat="44.58967" lon="5.89152">
        <ele>1334</ele>
        <time>2017-09-09T15:49:14Z</time>
      </trkpt>
      <trkpt lat="44.5909" lon="5.89124">
        <ele>1351</ele>
        <time>2017-09-09T15:51:14Z</time>
      </trkpt>
      <trkpt lat="44.59146" lon="5.89287">
        <ele>1321</ele>
        <time>2017-09-09T15:53:14Z</time>
      </trkpt>
      <trkpt lat="44.59273" lon="5.89304">
        <ele>1343</ele>
        <time>2017-09-09T15:55:14Z</time>
      </trkpt>
      <trkpt lat="44.59278" lon="5.89411">
        <ele>1314</ele>
        <time>2017-09-09T15:57:14Z</time>
      </trkpt>
      <trkpt lat="44.59412" lon="5.89456">
        <ele>1338</ele>
        <time>2017-09-09T15:59:14Z</time>
      </trkpt>
      <trkpt lat="44.59485" lon="5.89557">
        <ele>1317</ele>
        <time>2017-09-09T16:01:14Z</time>
      </trkpt>
      <trkpt lat="44.5964" lon="5.89426">
        <ele>1329</ele>
        <time>2017-09-09T16:03:14Z</time>
      </trkpt>
      <trkpt lat="44.5969" lon="5.89263">
        <ele>1350</ele>
        <time>2017-09-09T16:05:14Z</time>
      </trkpt>
      <trkpt lat="44.59834" lon="5.89323">
        <ele>1336</ele>
        <time>2017-09-09T16:07:14Z</time>
      </trkpt>
      <trkpt lat="44.598" lon="5.89561">
        <ele>1336</ele>
        <time>2017-09-09T16:09:14Z</time>
      </trkpt>
      <trkpt lat="44.59759" lon="5.89699">
        <ele>1326</ele>
        <time>2017-09-09T16:11:14Z</time>
      </trkpt>
      <trkpt lat="44.59805" lon="5.89875">
        <ele>1331</ele>
        <time>2017-09-09T16:13:14Z</time>
      </trkpt>
      <trkpt lat="44.59847" lon="5.89924">
        <ele>1337</ele>
        <time>2017-09-09T16:15:14Z</time>
      </trkpt>
      <trkpt lat="44.59899" lon="5.90102">
        <ele>1314</ele>
        <time>2017-09-09T16:17:14Z</time>
      </trkpt>
      <trkpt lat="44.60124" lon="5.89849">
        <ele>1356</ele>
        <time>2017-09-09T16:19:14Z</time>
      </trkpt>
      <trkpt lat="44.60104" lon="5.90061">
        <ele>1337</ele>
        <time>2017-09-09T16:21:14Z</time>
      </trkpt>
      <trkpt lat="44.60121" lon="5.9019">
        <ele>1348</ele>
        <time>2017-09-09T16:23:14Z</time>
      </trkpt>
      <trkpt lat="44.60058" lon="5.90248">
        <ele>1344</ele>
        <time>2017-09-09T16:25:14Z</time>
      </trkpt>
      <trkpt lat="44.60032" lon="5.90287">
        <ele>1339</ele>
        <time>2017-09-09T16:27:14Z</time>
      </trkpt>
      <trkpt lat="44.60054" lon="5.9034">
        <ele>1346</ele>
        <time>2017-09-09T16:29:14Z</time>
      </trkpt>
      <trkpt lat="44.60064" lon="5.90411">
        <ele>1339</ele>
        <time>2017-09-09T16:31:14Z</time>
      </trkpt>
      <trkpt lat="44.6017" lon="5.90564">
        <ele>1331</ele>
        <time>2017-09-09T16:33:14Z</time>
      </trkpt>
      <trkpt lat="44.60219" lon="5.90682">
        <ele>1315</ele>
        <time>2017-09-09T16:35:14Z</time>
      </trkpt>
      <trkpt lat="44.60242" lon="5.90761">
        <ele>1305</ele>
        <time>2017-09-09T16:37:14Z</time>
      </trkpt>
      <trkpt lat="44.60272" lon="5.90789">
        <ele>1309</ele>
        <time>2017-09-09T16:39:14Z</time>
      </trkpt>
      <trkpt lat="44.60307" lon="5.90797">
        <ele>1320</ele>
        <time>2017-09-09T16:41:14Z</time>
      </trkpt>
      <trkpt lat="44.603" lon="5.90872">
        <ele>1301</ele>
        <time>2017-09-09T16:43:14Z</time>
      </trkpt>
      <trkpt lat="44.60341" lon="5.90883">
        <ele>1310</ele>
        <time>2017-09-09T16:45:14Z</time>
      </trkpt>
      <trkpt lat="44.60431" lon="5.90995">
        <ele>1311</ele>
        <time>2017-09-09T16:47:14Z</time>
      </trkpt>
      <trkpt lat="44.60405" lon="5.91048">
        <ele>1318</ele>
        <time>2017-09-09T16:49:14Z</time>
      </trkpt>
      <trkpt lat="44.60368" lon="5.91033">
        <ele>1313</ele>
        <time>2017-09-09T16:51:14Z</time>
      </trkpt>
      <trkpt lat="44.60229" lon="5.91029">
        <ele>1322</ele>
        <time>2017-09-09T16:53:14Z</time>
      </trkpt>
      <trkpt lat="44.60205" lon="5.91031">
        <ele>1326</ele>
        <time>2017-09-09T16:55:14Z</time>
      </trkpt>
      <trkpt lat="44.60118" lon="5.90978">
        <ele>1323</ele>
        <time>2017-09-09T16:57:14Z</time>
      </trkpt>
      <trkpt lat="44.59999" lon="5.9095">
        <ele>1337</ele>
        <time>2017-09-09T16:59:14Z</time>
      </trkpt>
      <trkpt lat="44.59909" lon="5.90937">
        <ele>1349</ele>
        <time>2017-09-09T17:01:14Z</time>
      </trkpt>
      <trkpt lat="44.59841" lon="5.9092">
        <ele>1352</ele>
        <time>2017-09-09T17:03:14Z</time>
      </trkpt>
      <trkpt lat="44.59756" lon="5.90918">
        <ele>1363</ele>
        <time>2017-09-09T17:05:14Z</time>
      </trkpt>
      <trkpt lat="44.59661" lon="5.90975">
        <ele>1373</ele>
        <time>2017-09-09T17:07:14Z</time>
      </trkpt>
      <trkpt lat="44.59525" lon="5.91044">
        <ele>1385</ele>
        <time>2017-09-09T17:09:14Z</time>
      </trkpt>
      <trkpt lat="44.59444" lon="5.91025">
        <ele>1388</ele>
        <time>2017-09-09T17:11:14Z</time>
      </trkpt>
      <trkpt lat="44.59352" lon="5.90988">
        <ele>1391</ele>
        <time>2017-09-09T17:13:14Z</time>
      </trkpt>
      <trkpt lat="44.59245" lon="5.9096">
        <ele>1401</ele>
        <time>2017-09-09T17:15:14Z</time>
      </trkpt>
      <trkpt lat="44.59152" lon="5.90909">
        <ele>1410</ele>
        <time>2017-09-09T17:17:14Z</time>
      </trkpt>
      <trkpt lat="44.59082" lon="5.90845">
        <ele>1420</ele>
        <time>2017-09-09T17:19:14Z</time>
      </trkpt>
      <trkpt lat="44.58984" lon="5.90705">
        <ele>1445</ele>
        <time>2017-09-09T17:21:14Z</time>
      </trkpt>
      <trkpt lat="44.5904" lon="5.90883">
        <ele>1450</ele>
        <time>2017-09-09T17:23:14Z</time>
      </trkpt>
      <trkpt lat="44.59132" lon="5.91149">
        <ele>1480</ele>
        <time>2017-09-09T17:25:14Z</time>
      </trkpt>
      <trkpt lat="44.59221" lon="5.91237">
        <ele>1489</ele>
        <time>2017-09-09T17:27:14Z</time>
      </trkpt>
      <trkpt lat="44.59485" lon="5.91424">
        <ele>1522</ele>
        <time>2017-09-09T17:29:14Z</time>
      </trkpt>
      <trkpt lat="44.59242" lon="5.91394">
        <ele>1545</ele>
        <time>2017-09-09T17:31:14Z</time>
      </trkpt>
      <trkpt lat="44.59056" lon="5.91317">
        <ele>1559</ele>
        <time>2017-09-09T17:33:14Z</time>
      </trkpt>
      <trkpt lat="44.58891" lon="5.91111">
        <ele>1578</ele>
        <time>2017-09-09T17:35:14Z</time>
      </trkpt>
      <trkpt lat="44.58854" lon="5.91031">
        <ele>1584</ele>
        <time>2017-09-09T17:37:14Z</time>
      </trkpt>
      <trkpt lat="44.58762" lon="5.90868">
        <ele>1588</ele>
        <time>2017-09-09T17:39:14Z</time>
      </trkpt>
      <trkpt lat="44.58715" lon="5.90842">
        <ele>1603</ele>
        <time>2017-09-09T17:41:14Z</time>
      </trkpt>
      <trkpt lat="44.58663" lon="5.90712">
        <ele>1594</ele>
        <time>2017-09-09T17:43:14Z</time>
      </trkpt>
      <trkpt lat="44.58496" lon="5.90591">
        <ele>1610</ele>
        <time>2017-09-09T17:45:14Z</time>
      </trkpt>
      <trkpt lat="44.58483" lon="5.90581">
        <ele>1609</ele>
        <time>2017-09-09T17:47:14Z</time>
      </trkpt>
      <trkpt lat="44.58455" lon="5.90624">
        <ele>1608</ele>
        <time>2017-09-09T17:49:14Z</time>
      </trkpt>
      <trkpt lat="44.58388" lon="5.90596">
        <ele>1600</ele>
        <time>2017-09-09T17:51:14Z</time>
      </trkpt>
      <trkpt lat="44.58322" lon="5.90634">
        <ele>1580</ele>
        <time>2017-09-09T17:53:14Z</time>
      </trkpt>
      <trkpt lat="44.58206" lon="5.90699">
        <ele>1545</ele>
        <time>2017-09-09T17:55:14Z</time>
      </trkpt>
      <trkpt lat="44.58111" lon="5.90722">
        <ele>1525</ele>
        <time>2017-09-09T17:57:14Z</time>
      </trkpt>
      <trkpt lat="44.58032" lon="5.90733">
        <ele>1518</ele>
        <time>2017-09-09T17:59:14Z</time>
      </trkpt>
      <trkpt lat="44.57966" lon="5.90774">
        <ele>1503</ele>
        <time>2017-09-09T18:01:14Z</time>
      </trkpt>
      <trkpt lat="44.58082" lon="5.90789">
        <ele>1497</ele>
        <time>2017-09-09T18:03:14Z</time>
      </trkpt>
      <trkpt lat="44.58107" lon="5.90819">
        <ele>1493</ele>
        <time>2017-09-09T18:05:14Z</time>
      </trkpt>
      <trkpt lat="44.58042" lon="5.90939">
        <ele>1465</ele>
        <time>2017-09-09T18:07:14Z</time>
      </trkpt>
      <trkpt lat="44.58015" lon="5.91031">
        <ele>1455</ele>
        <time>2017-09-09T18:09:14Z</time>
      </trkpt>
      <trkpt lat="44.57957" lon="5.91181">
        <ele>1444</ele>
        <time>2017-09-09T18:11:14Z</time>
      </trkpt>
      <trkpt lat="44.57884" lon="5.91366">
        <ele>1422</ele>
        <time>2017-09-09T18:13:14Z</time>
      </trkpt>
      <trkpt lat="44.57847" lon="5.91486">
        <ele>1421</ele>
        <time>2017-09-09T18:15:14Z</time>
      </trkpt>
      <trkpt lat="44.57792" lon="5.91551">
        <ele>1408</ele>
        <time>2017-09-09T18:17:14Z</time>
      </trkpt>
      <trkpt lat="44.57757" lon="5.91662">
        <ele>1417</ele>
        <time>2017-09-09T18:19:14Z</time>
      </trkpt>
      <trkpt lat="44.57692" lon="5.91778">
        <ele>1412</ele>
        <time>2017-09-09T18:21:14Z</time>
      </trkpt>
      <trkpt lat="44.57619" lon="5.91915">
        <ele>1403</ele>
        <time>2017-09-09T18:23:14Z</time>
      </trkpt>
      <trkpt lat="44.57567" lon="5.92081">
        <ele>1395</ele>
        <time>2017-09-09T18:25:14Z</time>
      </trkpt>
      <trkpt lat="44.57582" lon="5.92113">
        <ele>1396</ele>
        <time>2017-09-09T18:27:14Z</time>
      </trkpt>
      <trkpt lat="44.57708" lon="5.92132">
        <ele>1402</ele>
        <time>2017-09-09T18:29:14Z</time>
      </trkpt>
      <trkpt lat="44.57851" lon="5.92145">
        <ele>1406</ele>
        <time>2017-09-09T18:31:14Z</time>
      </trkpt>
      <trkpt lat="44.57969" lon="5.9216">
        <ele>1399</ele>
        <time>2017-09-09T18:33:14Z</time>
      </trkpt>
      <trkpt lat="44.58122" lon="5.92085">
        <ele>1392</ele>
        <time>2017-09-09T18:35:14Z</time>
      </trkpt>
      <trkpt lat="44.5816" lon="5.92087">
        <ele>1386</ele>
        <time>2017-09-09T18:37:14Z</time>
      </trkpt>
      <trkpt lat="44.58203" lon="5.92076">
        <ele>1385</ele>
        <time>2017-09-09T18:39:14Z</time>
      </trkpt>
      <trkpt lat="44.58272" lon="5.92061">
        <ele>1388</ele>
        <time>2017-09-09T18:41:14Z</time>
      </trkpt>
      <trkpt lat="44.58266" lon="5.92085">
        <ele>1379</ele>
        <time>2017-09-09T18:43:14Z</time>
      </trkpt>
      <trkpt lat="44.58204" lon="5.921">
        <ele>1377</ele>
        <time>2017-09-09T18:45:14Z</time>
      </trkpt>
      <trkpt lat="44.58102" lon="5.92162">
        <ele>1368</ele>
        <time>2017-09-09T18:47:14Z</time>
      </trkpt>
      <trkpt lat="44.58082" lon="5.92177">
        <ele>1366</ele>
        <time>2017-09-09T18:49:14Z</time>
      </trkpt>
      <trkpt lat="44.58091" lon="5.92209">
        <ele>1353</ele>
        <time>2017-09-09T18:51:14Z</time>
      </trkpt>
      <trkpt lat="44.58044" lon="5.9222">
        <ele>1359</ele>
        <time>2017-09-09T18:53:14Z</time>
      </trkpt>
      <trkpt lat="44.57995" lon="5.92246">
        <ele>1360</ele>
        <time>2017-09-09T18:55:14Z</time>
      </trkpt>
      <trkpt lat="44.57984" lon="5.9228">
        <ele>1348</ele>
        <time>2017-09-09T18:57:14Z</time>
      </trkpt>
      <trkpt lat="44.57942" lon="5.92319">
        <ele>1339</ele>
        <time>2017-09-09T18:59:14Z</time>
      </trkpt>
      <trkpt lat="44.57913" lon="5.92353">
        <ele>1331</ele>
        <time>2017-09-09T19:01:14Z</time>
      </trkpt>
      <trkpt lat="44.57784" lon="5.9236">
        <ele>1323</ele>
        <time>2017-09-09T19:03:14Z</time>
      </trkpt>
      <trkpt lat="44.57656" lon="5.92394">
        <ele>1304</ele>
        <time>2017-09-09T19:05:14Z</time>
      </trkpt>
      <trkpt lat="44.57553" lon="5.92441">
        <ele>1289</ele>
        <time>2017-09-09T19:07:14Z</time>
      </trkpt>
      <trkpt lat="44.57448" lon="5.92473">
        <ele>1276</ele>
        <time>2017-09-09T19:09:14Z</time>
      </trkpt>
      <trkpt lat="44.57604" lon="5.92475">
        <ele>1277</ele>
        <time>2017-09-09T19:11:14Z</time>
      </trkpt>
      <trkpt lat="44.57689" lon="5.9251">
        <ele>1274</ele>
        <time>2017-09-09T19:13:14Z</time>
      </trkpt>
      <trkpt lat="44.57853" lon="5.92581">
        <ele>1252</ele>
        <time>2017-09-09T19:15:14Z</time>
      </trkpt>
      <trkpt lat="44.57908" lon="5.92591">
        <ele>1242</ele>
        <time>2017-09-09T19:17:14Z</time>
      </trkpt>
      <trkpt lat="44.5802" lon="5.92548">
        <ele>1244</ele>
        <time>2017-09-09T19:19:14Z</time>
      </trkpt>
      <trkpt lat="44.5811" lon="5.92604">
        <ele>1234</ele>
        <time>2017-09-09T19:21:14Z</time>
      </trkpt>
      <trkpt lat="44.58201" lon="5.92664">
        <ele>1231</ele>
        <time>2017-09-09T19:23:14Z</time>
      </trkpt>
      <trkpt lat="44.5822" lon="5.92733">
        <ele>1219</ele>
        <time>2017-09-09T19:25:14Z</time>
      </trkpt>
      <trkpt lat="44.58247" lon="5.9275">
        <ele>1219</ele>
        <time>2017-09-09T19:27:14Z</time>
      </trkpt>
      <trkpt lat="44.58273" lon="5.92765">
        <ele>1216</ele>
        <time>2017-09-09T19:29:14Z</time>
      </trkpt>
      <trkpt lat="44.58342" lon="5.92765">
        <ele>1218</ele>
        <time>2017-09-09T19:31:14Z</time>
      </trkpt>
      <trkpt lat="44.58406" lon="5.92851">
        <ele>1199</ele>
        <time>2017-09-09T19:33:14Z</time>
      </trkpt>
      <trkpt lat="44.58498" lon="5.92823">
        <ele>1206</ele>
        <time>2017-09-09T19:35:14Z</time>
      </trkpt>
      <trkpt lat="44.58564" lon="5.92827">
        <ele>1204</ele>
        <time>2017-09-09T19:37:14Z</time>
      </trkpt>
      <trkpt lat="44.58632" lon="5.92832">
        <ele>1206</ele>
        <time>2017-09-09T19:39:14Z</time>
      </trkpt>
      <trkpt lat="44.58724" lon="5.92965">
        <ele>1204</ele>
        <time>2017-09-09T19:41:14Z</time>
      </trkpt>
      <trkpt lat="44.58718" lon="5.93023">
        <ele>1203</ele>
        <time>2017-09-09T19:43:14Z</time>
      </trkpt>
      <trkpt lat="44.58797" lon="5.93096">
        <ele>1225</ele>
        <time>2017-09-09T19:45:14Z</time>
      </trkpt>
      <trkpt lat="44.58787" lon="5.93136">
        <ele>1221</ele>
        <time>2017-09-09T19:47:14Z</time>
      </trkpt>
      <trkpt lat="44.5875" lon="5.93123">
        <ele>1211</ele>
        <time>2017-09-09T19:49:14Z</time>
      </trkpt>
      <trkpt lat="44.5871" lon="5.93134">
        <ele>1218</ele>
        <time>2017-09-09T19:51:14Z</time>
      </trkpt>
      <trkpt lat="44.58716" lon="5.93205">
        <ele>1231</ele>
        <time>2017-09-09T19:53:14Z</time>
      </trkpt>
      <trkpt lat="44.58802" lon="5.93293">
        <ele>1236</ele>
        <time>2017-09-09T19:55:14Z</time>
      </trkpt>
      <trkpt lat="44.58729" lon="5.93265">
        <ele>1241</ele>
        <time>2017-09-09T19:57:14Z</time>
      </trkpt>
      <trkpt lat="44.58674" lon="5.93235">
        <ele>1248</ele>
        <time>2017-09-09T19:59:14Z</time>
      </trkpt>
      <trkpt lat="44.58625" lon="5.93201">
        <ele>1248</ele>
        <time>2017-09-09T20:01:14Z</time>
      </trkpt>
      <trkpt lat="44.58548" lon="5.9322">
        <ele>1264</ele>
        <time>2017-09-09T20:03:14Z</time>
      </trkpt>
      <trkpt lat="44.58613" lon="5.93278">
        <ele>1269</ele>
        <time>2017-09-09T20:05:14Z</time>
      </trkpt>
      <trkpt lat="44.58643" lon="5.93336">
        <ele>1279</ele>
        <time>2017-09-09T20:07:14Z</time>
      </trkpt>
      <trkpt lat="44.58564" lon="5.93308">
        <ele>1284</ele>
        <time>2017-09-09T20:09:14Z</time>
      </trkpt>
      <trkpt lat="44.58538" lon="5.93327">
        <ele>1292</ele>
        <time>2017-09-09T20:11:14Z</time>
      </trkpt>
      <trkpt lat="44.58571" lon="5.93389">
        <ele>1296</ele>
        <time>2017-09-09T20:13:14Z</time>
      </trkpt>
      <trkpt lat="44.58678" lon="5.93394">
        <ele>1290</ele>
        <time>2017-09-09T20:15:14Z</time>
      </trkpt>
      <trkpt lat="44.58593" lon="5.93441">
        <ele>1304</ele>
        <time>2017-09-09T20:17:14Z</time>
      </trkpt>
      <trkpt lat="44.58568" lon="5.93462">
        <ele>1311</ele>
        <time>2017-09-09T20:19:14Z</time>
      </trkpt>
    </trkseg>
  </trk>
</gpx>